Time;durP1;ratioP1;P1;durP2;ratioP2;P2;SDS_P1;SDS_P2;PMS_P1;PMS_P2;Temp;Humidity;BMP_temperature;BMP_pressure;BME280_temperature;BME280_humidity;BME280_pressure;Samples;Min_cycle;Max_cycle;Signal;HPM_P1;HPM_P2
2021/12/04 00:00:13;;;;;;;0.90;0.90;;;-6.50;99.90;;;;;;5065182;28;20415;-84
2021/12/04 00:02:39;;;;;;;1.00;1.00;;;-6.50;99.90;;;;;;5051283;28;20275;-87
2021/12/04 00:05:12;;;;;;;0.80;0.80;;;-6.50;99.90;;;;;;5070163;28;20205;-84
2021/12/04 00:07:46;;;;;;;0.97;0.97;;;-6.50;99.90;;;;;;5071122;28;20235;-85
2021/12/04 00:10:17;;;;;;;1.00;1.00;;;-6.50;99.90;;;;;;5059482;28;20209;-84
2021/12/04 00:12:44;;;;;;;0.90;0.90;;;-6.50;99.90;;;;;;5042870;28;20629;-84
2021/12/04 00:15:10;;;;;;;1.00;1.00;;;-6.60;99.90;;;;;;5057167;28;20216;-84
2021/12/04 00:17:36;;;;;;;0.90;0.90;;;-6.60;99.90;;;;;;5040412;28;20673;-84
2021/12/04 00:20:08;;;;;;;0.90;0.90;;;-6.70;99.90;;;;;;5056432;28;20270;-84
2021/12/04 00:22:39;;;;;;;0.90;0.90;;;-6.70;99.90;;;;;;5055455;28;20209;-84
2021/12/04 00:25:07;;;;;;;7.00;2.83;;;-6.80;99.90;;;;;;5073423;28;20279;-84
2021/12/04 00:27:32;;;;;;;0.90;0.90;;;-6.90;99.90;;;;;;5056033;28;20303;-84
2021/12/04 00:29:58;;;;;;;1.00;1.00;;;-7.00;99.90;;;;;;5058648;28;20300;-84
2021/12/04 00:32:33;;;;;;;0.90;0.90;;;-7.00;99.90;;;;;;5055723;28;20628;-84
2021/12/04 00:51:20;;;;;;;0.80;0.80;;;-7.60;99.90;;;;;;5073349;28;20219;-84
2021/12/04 00:53:47;;;;;;;0.93;0.93;;;-7.70;99.90;;;;;;5073842;28;20208;-84
2021/12/04 00:56:14;;;;;;;1.03;1.03;;;-7.70;99.90;;;;;;5055545;28;20284;-84
2021/12/04 00:58:42;;;;;;;0.83;0.83;;;-7.70;99.90;;;;;;5054961;28;20237;-85
2021/12/04 01:01:08;;;;;;;1.00;1.00;;;-7.80;99.90;;;;;;5049199;28;20221;-84
2021/12/04 01:03:35;;;;;;;0.90;0.90;;;-7.80;99.90;;;;;;5036013;28;20320;-85
2021/12/04 01:06:01;;;;;;;0.90;0.90;;;-7.80;99.90;;;;;;5034908;28;20696;-84
2021/12/04 01:08:26;;;;;;;0.90;0.90;;;-7.80;99.90;;;;;;5037665;28;20237;-84
2021/12/04 01:10:52;;;;;;;0.97;0.97;;;-7.80;99.90;;;;;;5036392;28;20237;-84
2021/12/04 01:13:18;;;;;;;0.90;0.90;;;-7.80;99.90;;;;;;5034327;28;20644;-84
2021/12/04 01:15:49;;;;;;;0.90;0.90;;;-7.80;99.90;;;;;;5042251;28;20210;-86
2021/12/04 01:18:14;;;;;;;1.00;1.00;;;-7.70;99.90;;;;;;5049690;28;20213;-86
2021/12/04 01:20:43;;;;;;;0.90;0.90;;;-7.60;99.90;;;;;;5046766;28;20630;-84
2021/12/04 01:23:10;;;;;;;0.80;0.80;;;-7.60;99.90;;;;;;5044212;28;20616;-84
2021/12/04 01:25:37;;;;;;;0.90;0.90;;;-7.50;99.90;;;;;;5037726;28;20221;-86
2021/12/04 01:28:04;;;;;;;0.90;0.90;;;-7.50;99.90;;;;;;5048380;28;20683;-83
2021/12/04 01:30:30;;;;;;;0.90;0.90;;;-7.50;99.90;;;;;;5052871;28;20205;-84
2021/12/04 01:32:59;;;;;;;0.90;0.90;;;-7.40;99.90;;;;;;5035113;28;20206;-83
2021/12/04 01:35:25;;;;;;;0.93;0.93;;;-7.50;99.90;;;;;;5048976;28;20704;-83
2021/12/04 01:37:54;;;;;;;1.00;1.00;;;-7.40;99.90;;;;;;5036587;28;20220;-84
2021/12/04 01:40:23;;;;;;;1.47;1.37;;;-7.50;99.90;;;;;;5033454;28;20209;-84
2021/12/04 01:42:49;;;;;;;0.90;0.90;;;-7.50;99.90;;;;;;5035966;28;20300;-83
2021/12/04 01:45:18;;;;;;;0.90;0.90;;;-7.50;99.90;;;;;;5033594;28;20245;-84
2021/12/04 01:47:47;;;;;;;0.80;0.80;;;-7.50;99.90;;;;;;5035499;28;20296;-84
2021/12/04 01:50:14;;;;;;;1.00;1.00;;;-7.50;99.90;;;;;;5034153;28;20208;-87
2021/12/04 01:52:40;;;;;;;0.80;0.80;;;-7.40;99.90;;;;;;5051605;28;20221;-84
2021/12/04 01:55:08;;;;;;;0.90;0.90;;;-7.40;99.90;;;;;;5036114;28;20283;-84
2021/12/04 01:57:34;;;;;;;0.90;0.90;;;-7.50;99.90;;;;;;5036146;28;20240;-84
2021/12/04 02:00:00;;;;;;;0.90;0.90;;;-7.40;99.90;;;;;;5053040;28;20605;-83
2021/12/04 02:02:26;;;;;;;0.90;0.90;;;-7.50;99.90;;;;;;5053945;28;20277;-83
2021/12/04 02:04:52;;;;;;;0.90;0.90;;;-7.40;99.90;;;;;;5053964;28;20723;-83
2021/12/04 02:07:20;;;;;;;0.90;0.90;;;-7.40;99.90;;;;;;5056364;28;20240;-84
2021/12/04 02:09:46;;;;;;;0.80;0.80;;;-7.50;99.90;;;;;;5071734;28;20205;-84
2021/12/04 02:12:14;;;;;;;0.80;0.80;;;-7.60;99.90;;;;;;5054345;28;20208;-83
2021/12/04 02:14:41;;;;;;;0.87;0.87;;;-7.60;99.90;;;;;;5054526;28;20213;-84
2021/12/04 02:17:10;;;;;;;0.83;0.83;;;-7.60;99.90;;;;;;5053609;28;20221;-84
2021/12/04 02:19:48;;;;;;;0.97;0.97;;;-7.60;99.90;;;;;;5053436;28;20216;-84
2021/12/04 02:22:18;;;;;;;0.80;0.80;;;-7.50;99.90;;;;;;5055749;28;20266;-85
2021/12/04 02:24:43;;;;;;;0.90;0.90;;;-7.50;99.90;;;;;;5071395;28;20208;-85
2021/12/04 02:27:12;;;;;;;1.10;1.10;;;-7.50;99.90;;;;;;5047513;28;20217;-85
2021/12/04 02:29:46;;;;;;;0.80;0.80;;;-7.50;99.90;;;;;;5041895;28;20227;-86
2021/12/04 02:32:11;;;;;;;0.90;0.90;;;-7.50;99.90;;;;;;5049292;28;20217;-84
2021/12/04 02:34:38;;;;;;;1.00;1.00;;;-7.50;99.90;;;;;;5039616;28;20711;-84
2021/12/04 02:37:06;;;;;;;0.90;0.90;;;-7.50;99.90;;;;;;5051577;28;20234;-84
2021/12/04 02:39:35;;;;;;;0.90;0.90;;;-7.40;99.90;;;;;;5054151;28;20200;-83
2021/12/04 02:42:04;;;;;;;0.90;0.90;;;-7.40;99.90;;;;;;5055168;28;20226;-83
2021/12/04 02:44:34;;;;;;;0.80;0.80;;;-7.40;99.90;;;;;;5053816;28;20247;-84
2021/12/04 02:47:02;;;;;;;0.80;0.80;;;-7.40;99.90;;;;;;5054459;28;20246;-84
2021/12/04 02:49:28;;;;;;;0.97;0.97;;;-7.40;99.90;;;;;;5036118;28;20224;-84
2021/12/04 02:52:13;;;;;;;0.80;0.80;;;-7.40;99.90;;;;;;5054003;28;20221;-84
2021/12/04 02:54:39;;;;;;;0.90;0.90;;;-7.30;99.90;;;;;;5037854;28;20626;-84
2021/12/04 02:57:08;;;;;;;0.80;0.80;;;-7.30;99.90;;;;;;5075848;28;20196;-84
2021/12/04 02:59:39;;;;;;;0.83;0.83;;;-7.30;99.90;;;;;;5058337;28;20668;-86
2021/12/04 03:02:16;;;;;;;0.80;0.80;;;-7.30;99.90;;;;;;5053955;28;20208;-89
2021/12/04 03:04:46;;;;;;;0.90;0.90;;;-7.30;99.90;;;;;;5056799;28;20734;-86
2021/12/04 03:07:12;;;;;;;0.80;0.80;;;-7.50;99.90;;;;;;5056052;28;20258;-85
2021/12/04 03:09:38;;;;;;;0.90;0.90;;;-7.40;99.90;;;;;;5058694;28;20887;-84
2021/12/04 03:12:09;;;;;;;0.80;0.80;;;-7.50;99.90;;;;;;5059181;28;20220;-83
2021/12/04 03:14:35;;;;;;;1.73;1.63;;;-7.50;99.90;;;;;;5042411;28;20247;-83
2021/12/04 03:17:02;;;;;;;0.90;0.90;;;-7.50;99.90;;;;;;5057731;28;20220;-83
2021/12/04 03:19:27;;;;;;;0.80;0.80;;;-7.60;99.90;;;;;;5054925;28;20821;-84
2021/12/04 03:21:55;;;;;;;0.90;0.90;;;-7.60;99.90;;;;;;5054544;28;20318;-84
2021/12/04 03:24:21;;;;;;;0.80;0.80;;;-7.60;99.90;;;;;;5058356;28;20278;-84
2021/12/04 03:26:49;;;;;;;0.80;0.80;;;-7.60;99.90;;;;;;5057915;28;20522;-84
2021/12/04 03:29:21;;;;;;;0.80;0.80;;;-7.70;99.90;;;;;;5055206;28;20212;-84
2021/12/04 03:42:48;;;;;;;0.90;0.90;;;-7.70;99.90;;;;;;4995313;28;20266;-84
2021/12/04 03:45:14;;;;;;;0.90;0.90;;;-7.80;99.90;;;;;;4979291;28;20679;-84
2021/12/04 03:47:44;;;;;;;0.90;0.90;;;-7.80;99.90;;;;;;4977448;28;20226;-84
2021/12/04 03:50:11;;;;;;;0.90;0.90;;;-7.90;99.90;;;;;;4976180;28;20220;-84
2021/12/04 03:52:37;;;;;;;0.90;0.90;;;-7.90;99.90;;;;;;4990931;28;20596;-83
2021/12/04 03:55:07;;;;;;;0.80;0.80;;;-8.00;99.90;;;;;;4979498;28;20218;-84
2021/12/04 03:57:33;;;;;;;1.53;1.43;;;-8.10;99.90;;;;;;4979511;28;20689;-84
2021/12/04 04:00:02;;;;;;;0.80;0.80;;;-8.10;99.90;;;;;;4975036;28;20639;-84
2021/12/04 04:02:28;;;;;;;0.90;0.90;;;-8.20;99.90;;;;;;4972599;28;20695;-84
2021/12/04 04:04:55;;;;;;;0.90;0.90;;;-8.20;99.90;;;;;;4956200;28;20230;-84
2021/12/04 04:07:23;;;;;;;0.90;0.90;;;-8.20;99.90;;;;;;4973983;28;20216;-85
2021/12/04 04:09:49;;;;;;;0.80;0.80;;;-8.20;99.90;;;;;;4980061;28;20216;-84
2021/12/04 04:12:15;;;;;;;1.00;1.00;;;-8.30;99.90;;;;;;5061045;28;20269;-84
2021/12/04 04:14:40;;;;;;;0.80;0.80;;;-8.30;99.90;;;;;;5061322;28;20633;-83
2021/12/04 04:17:06;;;;;;;0.90;0.90;;;-8.30;99.90;;;;;;5052034;28;20206;-86
2021/12/04 04:19:32;;;;;;;0.90;0.90;;;-8.40;99.90;;;;;;5056385;28;20656;-84
2021/12/04 04:22:06;;;;;;;0.90;0.90;;;-8.40;99.90;;;;;;5054365;28;20221;-82
2021/12/04 04:24:33;;;;;;;0.97;0.97;;;-8.40;99.90;;;;;;5053744;28;20232;-84
2021/12/04 04:26:59;;;;;;;0.90;0.90;;;-8.30;99.90;;;;;;5054488;28;20209;-84
2021/12/04 04:29:25;;;;;;;0.90;0.90;;;-8.30;99.90;;;;;;5058530;28;20271;-84
2021/12/04 04:31:53;;;;;;;0.80;0.80;;;-8.40;99.90;;;;;;5052604;28;20214;-86
2021/12/04 04:34:29;;;;;;;0.90;0.90;;;-8.40;99.90;;;;;;5056854;28;20680;-85
2021/12/04 05:12:45;;;;;;;1.10;1.10;;;-8.50;99.90;;;;;;5075863;28;20231;-84
2021/12/04 05:15:14;;;;;;;0.90;0.90;;;-8.50;99.90;;;;;;5060870;28;20219;-84
2021/12/04 05:17:55;;;;;;;0.80;0.80;;;-8.40;99.90;;;;;;5055707;28;20223;-84
2021/12/04 05:20:26;;;;;;;0.90;0.90;;;-8.50;99.90;;;;;;5055567;28;20247;-85
2021/12/04 05:22:51;;;;;;;1.00;1.00;;;-8.50;99.90;;;;;;5042536;28;20209;-85
2021/12/04 05:25:17;;;;;;;1.00;1.00;;;-8.50;99.90;;;;;;5056926;28;20406;-84
2021/12/04 05:27:43;;;;;;;0.90;0.90;;;-8.50;99.90;;;;;;5086197;28;20246;-84
2021/12/04 05:30:09;;;;;;;0.90;0.90;;;-8.50;99.90;;;;;;5062058;28;20189;-85
2021/12/04 05:32:35;;;;;;;0.90;0.90;;;-8.50;99.90;;;;;;5054512;28;20734;-84
2021/12/04 05:35:01;;;;;;;0.90;0.90;;;-8.60;99.90;;;;;;5056311;28;20295;-86
2021/12/04 05:37:27;;;;;;;0.90;0.90;;;-8.60;99.90;;;;;;5074493;28;20201;-85
2021/12/04 05:39:53;;;;;;;0.80;0.80;;;-8.60;99.90;;;;;;5074610;28;20201;-84
2021/12/04 05:42:18;;;;;;;0.90;0.90;;;-8.60;99.90;;;;;;5056680;28;20224;-84
2021/12/04 05:44:45;;;;;;;0.97;0.97;;;-8.60;99.90;;;;;;5052986;28;20559;-84
2021/12/04 05:47:21;;;;;;;0.90;0.90;;;-8.70;99.90;;;;;;5056997;28;20715;-84
2021/12/04 05:50:09;;;;;;;1.33;1.23;;;-8.60;99.90;;;;;;5056696;28;20233;-84
2021/12/04 05:52:52;;;;;;;0.90;0.90;;;-8.60;99.90;;;;;;5074048;28;20758;-84
2021/12/04 05:55:21;;;;;;;1.00;1.00;;;-8.60;99.90;;;;;;5064335;28;20655;-84
2021/12/04 05:57:47;;;;;;;0.90;0.90;;;-8.60;99.90;;;;;;5071471;28;20212;-86
2021/12/04 06:00:19;;;;;;;1.00;1.00;;;-8.50;99.90;;;;;;5064484;28;20212;-84
2021/12/04 06:02:46;;;;;;;0.90;0.90;;;-8.50;99.90;;;;;;5072652;28;20590;-84
2021/12/04 06:05:17;;;;;;;0.90;0.90;;;-8.60;99.90;;;;;;5054820;28;20221;-84
2021/12/04 06:07:43;;;;;;;0.90;0.90;;;-8.50;99.90;;;;;;5054382;28;20213;-84
2021/12/04 06:10:10;;;;;;;0.90;0.90;;;-8.50;99.90;;;;;;5054095;28;20216;-84
2021/12/04 06:12:36;;;;;;;0.90;0.90;;;-8.50;99.90;;;;;;5056025;28;20223;-85
2021/12/04 06:15:03;;;;;;;1.40;1.30;;;-8.50;99.90;;;;;;5055698;28;20636;-84
2021/12/04 06:17:29;;;;;;;0.90;0.90;;;-8.50;99.90;;;;;;5055997;28;20619;-84
2021/12/04 06:22:43;;;;;;;1.27;1.27;;;-8.50;99.90;;;;;;5072815;28;20230;-84
2021/12/04 06:25:12;;;;;;;1.13;1.10;;;-8.50;99.90;;;;;;5055610;28;20219;-84
2021/12/04 06:27:39;;;;;;;1.50;1.40;;;-8.50;99.90;;;;;;5054598;28;20304;-84
2021/12/04 06:30:08;;;;;;;1.00;1.00;;;-8.40;99.90;;;;;;5055025;28;20315;-85
2021/12/04 06:32:37;;;;;;;0.93;0.93;;;-8.40;99.90;;;;;;5036079;28;20657;-85
2021/12/04 06:35:05;;;;;;;0.90;0.90;;;-8.50;99.90;;;;;;5054941;28;20209;-85
2021/12/04 06:37:31;;;;;;;0.80;0.80;;;-8.50;99.90;;;;;;5055049;28;20652;-84
2021/12/04 06:39:57;;;;;;;1.00;1.00;;;-8.50;99.90;;;;;;5055168;28;20258;-85
2021/12/04 06:42:23;;;;;;;0.90;0.90;;;-8.50;99.90;;;;;;5055782;28;20221;-85
2021/12/04 06:44:52;;;;;;;1.00;1.00;;;-8.50;99.90;;;;;;5055814;28;20220;-84
2021/12/04 06:47:18;;;;;;;1.77;1.67;;;-8.60;99.90;;;;;;5053290;28;20382;-84
2021/12/04 06:49:45;;;;;;;2.17;1.93;;;-8.60;99.90;;;;;;5040523;28;20693;-84
2021/12/04 06:52:16;;;;;;;1.00;1.00;;;-8.60;99.90;;;;;;5055243;28;20682;-84
2021/12/04 06:54:51;;;;;;;3.50;3.13;;;-8.60;99.90;;;;;;5051692;28;20224;-84
2021/12/04 06:57:19;;;;;;;0.80;0.80;;;-8.60;99.90;;;;;;5051965;28;20299;-84
2021/12/04 06:59:47;;;;;;;4.43;3.27;;;-8.60;99.90;;;;;;5050644;28;20624;-84
2021/12/04 07:02:14;;;;;;;0.90;0.90;;;-8.60;99.90;;;;;;5050305;28;20285;-83
2021/12/04 07:04:40;;;;;;;1.17;1.13;;;-8.50;99.90;;;;;;5040074;28;20280;-85
2021/12/04 07:07:09;;;;;;;0.90;0.90;;;-8.50;99.90;;;;;;5050520;28;20657;-84
2021/12/04 07:09:39;;;;;;;1.53;1.43;;;-8.50;99.90;;;;;;5050654;28;20221;-84
2021/12/04 07:12:12;;;;;;;2.40;2.23;;;-8.50;99.90;;;;;;5059985;28;20591;-84
2021/12/04 07:14:39;;;;;;;0.90;0.90;;;-8.60;99.90;;;;;;5051960;28;20331;-84
2021/12/04 07:17:07;;;;;;;1.00;1.00;;;-8.60;99.90;;;;;;5033620;28;20216;-84
2021/12/04 07:19:33;;;;;;;0.83;0.83;;;-8.60;99.90;;;;;;5051354;28;20219;-84
2021/12/04 07:22:01;;;;;;;1.77;1.47;;;-8.60;99.90;;;;;;5044653;28;20699;-84
2021/12/04 07:24:29;;;;;;;1.50;1.33;;;-8.60;99.90;;;;;;5034432;28;20223;-84
2021/12/04 07:26:54;;;;;;;0.90;0.90;;;-8.70;99.90;;;;;;5035298;28;20271;-83
2021/12/04 07:29:20;;;;;;;0.73;0.73;;;-8.70;99.90;;;;;;5034355;28;20209;-86
2021/12/04 07:31:49;;;;;;;1.00;1.00;;;-8.70;99.90;;;;;;5035133;28;20243;-83
2021/12/04 07:34:18;;;;;;;0.80;0.80;;;-8.70;99.90;;;;;;5035849;28;20274;-84
2021/12/04 07:36:44;;;;;;;1.10;1.10;;;-8.70;99.90;;;;;;5032767;28;20232;-84
2021/12/04 07:39:10;;;;;;;0.93;0.93;;;-8.70;99.90;;;;;;5033736;28;20296;-84
2021/12/04 07:41:42;;;;;;;1.00;1.00;;;-8.70;99.90;;;;;;5050533;28;20308;-85
2021/12/04 07:44:23;;;;;;;0.90;0.90;;;-8.70;99.90;;;;;;5055338;28;20233;-85
2021/12/04 07:46:49;;;;;;;0.90;0.90;;;-8.60;99.90;;;;;;5026206;28;20656;-82
2021/12/04 07:49:15;;;;;;;0.83;0.83;;;-8.60;99.90;;;;;;5055506;28;20208;-85
2021/12/04 07:51:41;;;;;;;0.90;0.90;;;-8.50;99.90;;;;;;5038209;28;20229;-85
2021/12/04 07:54:08;;;;;;;0.87;0.87;;;-8.50;99.90;;;;;;5038880;28;20300;-85
2021/12/04 07:56:33;;;;;;;1.00;1.00;;;-8.50;99.90;;;;;;5039490;28;20213;-84
2021/12/04 07:58:59;;;;;;;3.20;2.70;;;-8.40;99.90;;;;;;5053574;28;20221;-85
2021/12/04 08:01:28;;;;;;;1.33;1.30;;;-8.40;99.90;;;;;;5047185;28;20577;-85
2021/12/04 08:03:59;;;;;;;4.23;2.80;;;-8.30;99.90;;;;;;5037235;28;20221;-84
2021/12/04 08:06:25;;;;;;;0.90;0.90;;;-8.20;99.90;;;;;;5050892;28;20220;-85
2021/12/04 08:08:58;;;;;;;0.90;0.90;;;-8.20;99.90;;;;;;5055348;28;20246;-84
2021/12/04 08:11:25;;;;;;;1.27;1.23;;;-8.20;99.90;;;;;;5054542;28;20220;-85
2021/12/04 08:13:51;;;;;;;1.17;1.17;;;-8.20;99.90;;;;;;5058784;28;20294;-84
2021/12/04 08:16:18;;;;;;;0.93;0.93;;;-8.00;99.90;;;;;;5051290;28;20213;-84
2021/12/04 08:18:44;;;;;;;1.77;1.67;;;-8.00;99.90;;;;;;5041732;28;20213;-84
2021/12/04 08:21:10;;;;;;;0.90;0.90;;;-8.00;99.90;;;;;;5035970;28;20224;-84
2021/12/04 08:23:36;;;;;;;1.07;1.07;;;-7.90;99.90;;;;;;5038313;28;20217;-84
2021/12/04 08:26:04;;;;;;;1.10;1.10;;;-7.90;99.90;;;;;;5052852;28;20749;-85
2021/12/04 08:28:30;;;;;;;1.10;1.07;;;-7.80;99.90;;;;;;5053373;28;20687;-85
2021/12/04 08:30:59;;;;;;;1.20;1.20;;;-7.80;99.90;;;;;;5047432;28;20240;-84
2021/12/04 08:33:25;;;;;;;1.43;1.33;;;-7.70;99.90;;;;;;5042873;28;20262;-83
2021/12/04 08:35:55;;;;;;;0.90;0.90;;;-7.60;99.90;;;;;;5048584;28;20233;-84
2021/12/04 08:38:21;;;;;;;0.90;0.90;;;-7.60;99.90;;;;;;5041512;28;20213;-85
2021/12/04 08:40:50;;;;;;;0.97;0.97;;;-7.60;99.90;;;;;;5050861;28;20221;-84
2021/12/04 08:43:16;;;;;;;1.40;1.33;;;-7.60;99.90;;;;;;5048128;28;20249;-84
2021/12/04 08:45:43;;;;;;;0.90;0.90;;;-7.60;99.90;;;;;;5050414;28;20416;-87
2021/12/04 08:48:09;;;;;;;0.90;0.90;;;-7.50;99.90;;;;;;5052682;28;20241;-84
2021/12/04 08:50:37;;;;;;;0.87;0.87;;;-7.50;99.90;;;;;;5052423;28;20220;-85
2021/12/04 08:53:07;;;;;;;1.90;1.80;;;-7.50;99.90;;;;;;5037373;28;20240;-85
2021/12/04 08:55:38;;;;;;;0.90;0.90;;;-7.50;99.90;;;;;;5037756;28;20217;-85
2021/12/04 08:58:11;;;;;;;0.90;0.90;;;-7.40;99.90;;;;;;5021659;28;20209;-86
2021/12/04 09:00:48;;;;;;;0.80;0.80;;;-7.40;99.90;;;;;;5040663;28;20205;-86
2021/12/04 09:03:25;;;;;;;0.93;0.93;;;-7.40;99.90;;;;;;5037689;28;20220;-87
2021/12/04 09:05:52;;;;;;;0.90;0.90;;;-7.30;99.90;;;;;;5056882;28;20680;-86
2021/12/04 09:08:21;;;;;;;0.83;0.83;;;-7.30;99.90;;;;;;5055330;28;20233;-86
2021/12/04 09:11:13;;;;;;;0.90;0.90;;;-7.30;99.90;;;;;;5038997;28;20209;-86
2021/12/04 09:13:44;;;;;;;3.23;2.03;;;-7.30;99.90;;;;;;5041525;28;21195;-85
2021/12/04 09:16:17;;;;;;;1.30;1.30;;;-7.20;99.90;;;;;;5054011;28;20197;-86
2021/12/04 09:19:00;;;;;;;1.43;1.33;;;-7.20;99.90;;;;;;5057473;28;20204;-86
2021/12/04 09:21:32;;;;;;;0.90;0.90;;;-7.20;99.90;;;;;;5054532;28;20299;-86
2021/12/04 09:24:11;;;;;;;2.07;1.87;;;-7.20;99.90;;;;;;5054951;28;20633;-86
2021/12/04 09:26:48;;;;;;;1.70;1.60;;;-7.20;99.90;;;;;;5051781;28;20227;-86
2021/12/04 09:33:16;;;;;;;0.97;0.97;;;-7.10;99.90;;;;;;5025707;28;20225;-85
2021/12/04 10:00:06;;;;;;;0.70;0.70;;;-6.80;99.90;;;;;;5073263;28;20227;-86
2021/12/04 10:02:44;;;;;;;0.90;0.90;;;-6.80;99.90;;;;;;5054982;28;20209;-86
2021/12/04 10:22:36;;;;;;;0.90;0.90;;;-6.50;99.90;;;;;;5044892;28;20709;-89
2021/12/04 10:33:28;;;;;;;0.90;0.90;;;-6.20;99.90;;;;;;5081994;28;20219;-87
2021/12/04 10:36:03;;;;;;;1.00;1.00;;;-6.20;99.90;;;;;;5062220;28;20221;-87
2021/12/04 10:38:32;;;;;;;1.97;1.83;;;-6.10;99.90;;;;;;5057429;28;20360;-87
2021/12/04 10:40:58;;;;;;;1.50;1.40;;;-6.10;99.90;;;;;;5062955;28;20212;-87
2021/12/04 10:43:29;;;;;;;1.00;1.00;;;-6.10;99.90;;;;;;5052979;28;20256;-87
2021/12/04 10:45:58;;;;;;;1.47;1.37;;;-6.10;99.90;;;;;;5063971;28;20216;-86
2021/12/04 10:48:36;;;;;;;1.00;1.00;;;-6.10;99.90;;;;;;5055244;28;20749;-86
2021/12/04 10:51:27;;;;;;;1.00;1.00;;;-6.10;99.90;;;;;;5053531;28;20350;-87
2021/12/04 10:53:56;;;;;;;1.27;1.20;;;-6.20;99.90;;;;;;5054169;28;20209;-89
2021/12/04 11:04:47;;;;;;;1.33;1.23;;;-6.30;99.90;;;;;;5070587;28;20227;-90
2021/12/04 11:27:27;;;;;;;0.80;0.80;;;-6.30;99.90;;;;;;5074187;28;20239;-86
2021/12/04 11:41:26;;;;;;;0.90;0.90;;;-6.40;99.90;;;;;;5014621;28;20220;-88
2021/12/04 11:46:29;;;;;;;0.80;0.80;;;-6.40;99.90;;;;;;5014219;28;20218;-89
2021/12/04 11:48:59;;;;;;;0.83;0.83;;;-6.40;99.90;;;;;;5013878;28;20697;-88
2021/12/04 11:51:29;;;;;;;0.80;0.80;;;-6.40;99.90;;;;;;5013543;28;20793;-88
2021/12/04 11:53:57;;;;;;;0.90;0.90;;;-6.40;99.90;;;;;;5015147;28;20226;-88
2021/12/04 11:56:32;;;;;;;1.00;1.00;;;-6.40;99.90;;;;;;4996919;28;20218;-86
2021/12/04 11:58:58;;;;;;;0.83;0.83;;;-6.40;99.90;;;;;;5006894;28;20249;-86
2021/12/04 12:01:39;;;;;;;1.10;1.10;;;-6.40;99.90;;;;;;5001263;28;20222;-86
2021/12/04 12:04:12;;;;;;;0.80;0.80;;;-6.30;99.90;;;;;;5015044;28;20215;-86
2021/12/04 12:10:25;;;;;;;0.90;0.90;;;-6.30;99.90;;;;;;5012148;28;20777;-89
2021/12/04 12:13:18;;;;;;;0.90;0.90;;;-6.20;99.90;;;;;;4981742;28;20329;-89
2021/12/04 12:15:48;;;;;;;0.80;0.80;;;-6.20;99.90;;;;;;5015593;28;20212;-88
2021/12/04 12:18:19;;;;;;;0.90;0.90;;;-6.10;99.90;;;;;;5037293;28;20210;-88
2021/12/04 12:20:55;;;;;;;0.90;0.90;;;-6.10;99.90;;;;;;5037373;28;20285;-88
2021/12/04 12:23:29;;;;;;;0.80;0.80;;;-6.10;99.90;;;;;;5035239;28;20251;-88
2021/12/04 12:26:26;;;;;;;0.80;0.80;;;-6.10;99.90;;;;;;5037004;28;20202;-88
2021/12/04 12:32:17;;;;;;;0.80;0.80;;;-6.00;99.90;;;;;;5055712;28;20287;-86
2021/12/04 12:37:26;;;;;;;0.80;0.80;;;-6.00;99.90;;;;;;5055127;28;20210;-87
2021/12/04 12:40:03;;;;;;;1.00;1.00;;;-5.90;99.90;;;;;;5037976;28;20213;-88
2021/12/04 12:43:07;;;;;;;4.30;3.00;;;-5.90;99.90;;;;;;5036052;28;20587;-88
2021/12/04 12:45:35;;;;;;;0.87;0.87;;;-5.80;99.90;;;;;;4956473;28;20606;-88
2021/12/04 12:48:11;;;;;;;0.80;0.80;;;-5.80;99.90;;;;;;4956122;28;20213;-88
2021/12/04 12:50:47;;;;;;;2.47;2.27;;;-5.70;99.90;;;;;;4938549;28;20675;-88
2021/12/04 12:53:21;;;;;;;0.90;0.90;;;-5.70;99.90;;;;;;4956730;28;20239;-87
2021/12/04 12:55:50;;;;;;;0.97;0.97;;;-5.70;99.90;;;;;;4972615;28;20231;-88
2021/12/04 12:58:23;;;;;;;0.97;0.97;;;-5.70;99.90;;;;;;4973727;28;20239;-88
2021/12/04 13:12:12;;;;;;;0.90;0.90;;;-6.10;99.90;;;;;;4975330;28;20258;-88
2021/12/04 13:14:45;;;;;;;0.93;0.93;;;-6.10;99.90;;;;;;4957064;28;20631;-87
2021/12/04 13:17:13;;;;;;;1.00;1.00;;;-6.10;99.90;;;;;;4972574;28;20316;-88
2021/12/04 13:19:49;;;;;;;1.00;1.00;;;-6.10;99.90;;;;;;4957503;28;20267;-88
2021/12/04 13:22:31;;;;;;;0.97;0.97;;;-6.10;99.90;;;;;;5007589;28;20216;-88
2021/12/04 13:25:07;;;;;;;0.80;0.80;;;-6.20;99.90;;;;;;5037255;28;20304;-87
2021/12/04 13:30:16;;;;;;;1.20;1.20;;;-6.20;99.90;;;;;;5052583;28;20205;-85
2021/12/04 13:32:45;;;;;;;1.00;1.00;;;-6.30;99.90;;;;;;5035324;28;20283;-86
2021/12/04 13:35:48;;;;;;;0.90;0.90;;;-6.40;99.90;;;;;;5044641;28;20200;-88
2021/12/04 13:38:18;;;;;;;0.80;0.80;;;-6.40;99.90;;;;;;5053557;28;20253;-87
2021/12/04 13:40:48;;;;;;;0.90;0.90;;;-6.40;99.90;;;;;;5038813;28;20632;-88
2021/12/04 13:43:14;;;;;;;0.93;0.93;;;-6.40;99.90;;;;;;5036100;28;20229;-87
2021/12/04 13:45:41;;;;;;;1.40;1.20;;;-6.40;99.90;;;;;;5036306;28;20243;-86
2021/12/04 13:48:08;;;;;;;0.90;0.90;;;-6.50;99.90;;;;;;5036245;28;20680;-88
2021/12/04 13:53:03;;;;;;;0.80;0.80;;;-6.50;99.90;;;;;;5052297;28;20212;-88
2021/12/04 13:55:30;;;;;;;0.90;0.90;;;-6.60;99.90;;;;;;5035379;28;20300;-86
2021/12/04 13:57:57;;;;;;;0.90;0.90;;;-6.60;99.90;;;;;;5035794;28;20615;-87
2021/12/04 14:00:24;;;;;;;0.90;0.90;;;-6.60;99.90;;;;;;5065347;28;20231;-88
2021/12/04 14:02:53;;;;;;;0.90;0.90;;;-6.70;99.90;;;;;;5053953;28;20209;-87
2021/12/04 14:05:22;;;;;;;0.90;0.90;;;-6.80;99.90;;;;;;5043985;28;20224;-85
2021/12/04 14:07:59;;;;;;;1.13;1.13;;;-6.80;99.90;;;;;;5052001;28;20217;-85
2021/12/04 14:10:29;;;;;;;0.90;0.90;;;-6.90;99.90;;;;;;5052047;28;20684;-86
2021/12/04 14:12:57;;;;;;;10.50;3.63;;;-7.00;99.90;;;;;;5052807;28;20213;-86
2021/12/04 14:15:26;;;;;;;1.13;1.13;;;-7.00;99.90;;;;;;5070736;28;20296;-84
2021/12/04 14:18:02;;;;;;;0.90;0.90;;;-7.10;99.90;;;;;;5052332;28;20207;-86
2021/12/04 14:20:29;;;;;;;1.00;1.00;;;-7.10;99.90;;;;;;5053602;28;20212;-86
2021/12/04 14:23:25;;;;;;;2.23;2.07;;;-7.20;99.90;;;;;;5055536;28;20695;-86
2021/12/04 14:25:54;;;;;;;1.00;1.00;;;-7.20;99.90;;;;;;5040147;28;20220;-86
2021/12/04 14:28:38;;;;;;;1.00;1.00;;;-7.20;99.90;;;;;;5054444;28;20668;-87
2021/12/04 14:31:04;;;;;;;0.90;0.90;;;-7.20;99.90;;;;;;5054070;28;20216;-87
2021/12/04 14:33:29;;;;;;;0.90;0.90;;;-7.10;99.90;;;;;;5055572;28;20688;-87
2021/12/04 14:35:55;;;;;;;2.53;2.20;;;-7.10;99.90;;;;;;5053661;28;20208;-87
2021/12/04 14:38:27;;;;;;;1.23;1.20;;;-7.10;99.90;;;;;;5046909;28;20209;-88
2021/12/04 14:40:59;;;;;;;0.90;0.90;;;-7.10;99.90;;;;;;5071272;28;20208;-87
2021/12/04 14:43:30;;;;;;;2.53;1.63;;;-7.10;99.90;;;;;;5055606;28;20208;-86
2021/12/04 14:45:58;;;;;;;0.90;0.90;;;-7.00;99.90;;;;;;5051305;28;20213;-86
2021/12/04 14:48:29;;;;;;;0.90;0.90;;;-7.00;99.90;;;;;;5052996;28;20219;-86
2021/12/04 14:51:04;;;;;;;0.90;0.90;;;-7.00;99.90;;;;;;5044663;28;20672;-87
2021/12/04 14:53:33;;;;;;;2.57;2.40;;;-6.90;99.90;;;;;;5039230;28;20220;-86
2021/12/04 14:56:03;;;;;;;1.13;1.10;;;-7.00;99.90;;;;;;5038960;28;20310;-87
2021/12/04 14:58:28;;;;;;;11.10;4.23;;;-6.90;99.90;;;;;;5055144;28;20231;-86
2021/12/04 15:01:02;;;;;;;2.37;2.27;;;-6.90;99.90;;;;;;5046645;28;20209;-87
2021/12/04 15:03:31;;;;;;;7.43;5.23;;;-6.90;99.90;;;;;;5034608;28;20703;-86
2021/12/04 15:06:00;;;;;;;2.03;1.93;;;-6.90;99.90;;;;;;5034860;28;20209;-88
2021/12/04 15:08:35;;;;;;;1.97;1.87;;;-6.90;99.90;;;;;;5037269;28;20714;-86
2021/12/04 15:11:02;;;;;;;1.27;1.20;;;-6.90;99.90;;;;;;5037814;28;20201;-88
2021/12/04 15:13:40;;;;;;;1.50;1.40;;;-6.90;99.90;;;;;;5046800;28;20208;-86
2021/12/04 15:16:08;;;;;;;0.90;0.90;;;-6.90;99.90;;;;;;5034371;28;20241;-86
2021/12/04 15:18:38;;;;;;;1.00;1.00;;;-6.90;99.90;;;;;;5035432;28;20217;-86
2021/12/04 15:21:15;;;;;;;1.00;1.00;;;-7.00;99.90;;;;;;5034237;28;20241;-86
2021/12/04 15:23:45;;;;;;;1.00;1.00;;;-6.90;99.90;;;;;;5041254;28;20206;-86
2021/12/04 15:26:18;;;;;;;0.90;0.90;;;-6.90;99.90;;;;;;5033307;28;20708;-86
2021/12/04 15:28:50;;;;;;;0.90;0.90;;;-6.90;99.90;;;;;;5034200;28;20205;-85
2021/12/04 15:31:18;;;;;;;0.90;0.90;;;-6.90;99.90;;;;;;5043447;28;20267;-86
2021/12/04 15:33:48;;;;;;;0.90;0.90;;;-6.90;99.90;;;;;;5028238;28;20674;-86
2021/12/04 15:36:45;;;;;;;0.90;0.90;;;-7.00;99.90;;;;;;5034329;28;20236;-86
2021/12/04 15:39:31;;;;;;;2.03;1.77;;;-6.90;99.90;;;;;;5053262;28;20581;-87
2021/12/04 15:45:07;;;;;;;1.00;1.00;;;-6.90;99.90;;;;;;5051910;28;20218;-86
2021/12/04 15:55:40;;;;;;;0.90;0.90;;;-6.90;99.90;;;;;;5051887;28;20216;-86
2021/12/04 15:58:41;;;;;;;0.90;0.90;;;-6.90;99.90;;;;;;5054023;28;20233;-87
2021/12/04 16:01:09;;;;;;;0.90;0.90;;;-6.90;99.90;;;;;;5051724;28;20265;-87
2021/12/04 16:03:40;;;;;;;1.00;1.00;;;-6.90;99.90;;;;;;5055624;28;20216;-87
2021/12/04 16:06:11;;;;;;;0.90;0.90;;;-6.90;99.90;;;;;;5038971;28;20221;-87
2021/12/04 16:09:13;;;;;;;0.90;0.90;;;-6.80;99.90;;;;;;5055236;28;20622;-87
2021/12/04 16:11:45;;;;;;;0.90;0.90;;;-6.90;99.90;;;;;;5045605;28;20220;-86
2021/12/04 16:14:11;;;;;;;1.07;1.03;;;-6.90;99.90;;;;;;5079022;28;20275;-86
2021/12/04 16:16:41;;;;;;;4.40;2.70;;;-6.90;99.90;;;;;;5056883;28;20212;-87
2021/12/04 16:19:09;;;;;;;1.00;1.00;;;-6.90;99.90;;;;;;5057380;28;20605;-87
2021/12/04 16:21:36;;;;;;;1.50;1.40;;;-7.00;99.90;;;;;;5058031;28;20660;-86